createdAt,value
2023-01-09T00:01:24.169Z,73.00
2023-01-09T00:03:51.439Z,105.15
2023-01-09T00:06:18.429Z,70.05
2023-01-09T00:08:45.262Z,60.47
2023-01-09T00:11:12.221Z,103.22
2023-01-09T00:13:39.362Z,74.88
2023-01-09T00:16:07.674Z,77.25
2023-01-09T00:18:35.889Z,115.47
2023-01-09T00:21:05.093Z,113.93
2023-01-09T00:23:31.992Z,81.13
2023-01-09T00:26:19.133Z,82.10
2023-01-09T00:28:47.860Z,84.18
2023-01-09T00:31:15.639Z,83.45
2023-01-09T00:33:59.758Z,72.65
2023-01-09T00:36:26.814Z,105.55
2023-01-09T00:38:53.598Z,51.88
2023-01-09T00:41:30.605Z,59.42
2023-01-09T00:44:11.656Z,49.38
2023-01-09T00:46:42.324Z,50.85
2023-01-09T00:49:09.718Z,49.30
2023-01-09T00:51:36.949Z,42.85
2023-01-09T00:54:04.124Z,39.88
2023-01-09T00:56:31.285Z,44.38
2023-01-09T00:58:58.081Z,51.95
2023-01-09T01:01:24.948Z,47.05
2023-01-09T01:03:51.779Z,36.58
2023-01-09T01:06:36.979Z,57.20
2023-01-09T01:09:03.994Z,65.00
2023-01-09T01:11:32.636Z,58.65
2023-01-09T01:13:59.385Z,57.30
2023-01-09T01:16:26.760Z,68.05
2023-01-09T01:18:53.725Z,72.20
2023-01-09T01:21:20.663Z,72.55
2023-01-09T01:23:47.484Z,53.70
2023-01-09T01:26:16.844Z,91.53
2023-01-09T01:28:44.012Z,80.25
2023-01-09T01:31:18.254Z,121.00
2023-01-09T01:33:45.191Z,92.85
2023-01-09T01:36:12.439Z,80.03
2023-01-09T01:38:39.391Z,70.63
2023-01-09T01:41:07.092Z,109.53
2023-01-09T01:44:03.320Z,87.45
2023-01-09T01:46:32.176Z,67.15
2023-01-09T01:49:12.112Z,66.82
2023-01-09T01:51:44.987Z,63.25
2023-01-09T01:54:19.396Z,52.85
2023-01-09T01:56:55.111Z,62.50
2023-01-09T01:59:26.542Z,59.80
2023-01-09T02:01:59.524Z,57.28
2023-01-09T02:04:27.394Z,55.83
2023-01-09T02:06:58.303Z,48.33
2023-01-09T02:09:26.969Z,53.80
2023-01-09T02:11:57.635Z,47.10
2023-01-09T02:14:28.698Z,45.97
2023-01-09T02:17:27.383Z,41.25
2023-01-09T02:19:54.713Z,41.90
2023-01-09T02:22:33.999Z,39.38
2023-01-09T02:25:19.408Z,38.25
2023-01-09T02:28:30.998Z,38.22
2023-01-09T02:31:25.247Z,33.65
2023-01-09T02:34:04.211Z,35.38
2023-01-09T02:36:41.313Z,30.83
2023-01-09T02:39:26.726Z,30.45
2023-01-09T02:41:55.689Z,28.48
2023-01-09T02:44:28.194Z,32.72
2023-01-09T02:47:05.054Z,33.38
2023-01-09T02:49:34.884Z,29.83
2023-01-09T02:52:35.941Z,33.42
2023-01-09T02:55:18.629Z,30.33
2023-01-09T02:57:50.998Z,35.10
2023-01-09T03:00:30.862Z,30.75
2023-01-09T03:03:04.757Z,33.63
2023-01-09T03:05:45.801Z,34.20
2023-01-09T03:08:40.201Z,39.08
2023-01-09T03:11:09.069Z,37.15
2023-01-09T03:14:03.596Z,41.47
2023-01-09T03:16:36.090Z,45.67
2023-01-09T03:19:11.748Z,38.88
2023-01-09T03:21:39.808Z,41.15
2023-01-09T03:24:06.625Z,42.75
2023-01-09T03:26:33.760Z,46.30
2023-01-09T03:29:00.950Z,45.97
2023-01-09T03:31:27.872Z,48.90
2023-01-09T03:33:54.808Z,47.65
2023-01-09T03:36:22.891Z,49.45
2023-01-09T03:38:50.050Z,50.50
2023-01-09T03:41:17.080Z,51.10
2023-01-09T03:43:43.828Z,50.35
2023-01-09T03:46:10.749Z,47.80
2023-01-09T03:48:37.548Z,53.70
2023-01-09T03:51:04.385Z,49.63
2023-01-09T03:53:31.258Z,42.80
2023-01-09T03:55:58.924Z,44.55
2023-01-09T03:58:26.955Z,53.65
2023-01-09T04:01:02.719Z,53.47
2023-01-09T04:03:29.948Z,49.53
2023-01-09T04:05:56.766Z,49.70
2023-01-09T04:08:23.528Z,53.45
2023-01-09T04:10:51.446Z,48.67
2023-01-09T04:13:18.975Z,53.72
2023-01-09T04:15:45.699Z,49.67
2023-01-09T04:18:12.546Z,53.95
2023-01-09T04:20:39.308Z,50.92
2023-01-09T04:23:06.167Z,51.75
2023-01-09T04:25:33.060Z,52.72
2023-01-09T04:27:59.813Z,48.80
2023-01-09T04:30:26.748Z,49.85
2023-01-09T04:32:53.634Z,48.50
2023-01-09T04:35:20.955Z,47.70
2023-01-09T04:37:48.055Z,47.58
2023-01-09T04:40:15.385Z,54.33
2023-01-09T04:42:42.809Z,54.63
2023-01-09T04:45:11.706Z,53.67
2023-01-09T04:47:38.940Z,46.20
2023-01-09T04:50:06.126Z,41.00
2023-01-09T04:52:33.012Z,53.28
2023-01-09T04:54:59.831Z,44.53
2023-01-09T04:57:26.632Z,49.20
2023-01-09T04:59:54.259Z,46.80
2023-01-09T05:02:21.164Z,49.88
2023-01-09T05:04:48.044Z,50.55
2023-01-09T05:07:14.804Z,49.67
2023-01-09T05:09:41.988Z,54.22
2023-01-09T05:12:08.947Z,50.35
2023-01-09T05:14:35.706Z,51.28
2023-01-09T05:17:02.403Z,50.53
2023-01-09T05:19:29.156Z,48.35
2023-01-09T05:21:55.963Z,50.88
2023-01-09T05:24:22.683Z,49.72
2023-01-09T05:26:49.408Z,51.50
2023-01-09T05:29:16.233Z,47.67
2023-01-09T05:31:43.105Z,46.40
2023-01-09T05:34:09.901Z,45.40
2023-01-09T05:36:36.694Z,46.33
2023-01-09T05:39:03.762Z,44.25
2023-01-09T05:41:30.725Z,48.25
2023-01-09T05:43:57.591Z,47.08
2023-01-09T05:46:24.457Z,47.95
2023-01-09T05:48:51.140Z,47.97
2023-01-09T05:51:18.267Z,42.88
2023-01-09T05:53:45.107Z,41.22
2023-01-09T05:56:12.094Z,38.75
2023-01-09T05:58:38.981Z,41.65
2023-01-09T06:01:06.402Z,18.75
2023-01-09T06:03:34.406Z,16.15
2023-01-09T06:06:01.171Z,14.45
2023-01-09T06:08:28.003Z,15.38
2023-01-09T06:10:54.848Z,10.40
2023-01-09T06:13:21.713Z,8.60
2023-01-09T06:15:49.322Z,7.35
2023-01-09T06:18:16.588Z,9.02
2023-01-09T06:20:46.068Z,8.65
2023-01-09T06:23:13.636Z,9.10
2023-01-09T06:25:40.953Z,6.00
2023-01-09T06:28:07.741Z,7.28
2023-01-09T06:30:34.828Z,6.22
2023-01-09T06:33:01.653Z,10.50
2023-01-09T06:35:28.404Z,7.85
2023-01-09T06:37:55.190Z,8.98
2023-01-09T06:40:21.937Z,6.50
2023-01-09T06:42:50.073Z,5.63
2023-01-09T06:45:17.067Z,5.65
2023-01-09T06:47:44.097Z,9.73
2023-01-09T06:50:11.880Z,5.75
2023-01-09T06:52:39.227Z,7.82
2023-01-09T06:55:07.086Z,7.15
2023-01-09T06:57:33.920Z,5.57
2023-01-09T07:00:00.879Z,6.45
2023-01-09T07:02:28.211Z,5.80
2023-01-09T07:04:55.140Z,5.45
2023-01-09T07:07:22.623Z,5.90
2023-01-09T07:09:49.701Z,5.80
2023-01-09T07:12:16.481Z,5.35
2023-01-09T07:14:43.178Z,6.40
2023-01-09T07:17:12.696Z,6.78
2023-01-09T07:19:39.417Z,6.70
2023-01-09T07:22:06.201Z,6.10
2023-01-09T07:24:32.941Z,7.03
2023-01-09T07:26:59.741Z,6.65
2023-01-09T07:29:26.593Z,5.80
2023-01-09T07:31:53.396Z,5.63
2023-01-09T07:34:20.496Z,8.20
2023-01-09T07:36:48.779Z,7.93
2023-01-09T07:39:15.661Z,6.45
2023-01-09T07:41:42.377Z,6.25
2023-01-09T07:44:11.201Z,7.05
2023-01-09T07:46:38.181Z,7.13
2023-01-09T07:49:05.088Z,6.13
2023-01-09T07:51:31.961Z,7.57
2023-01-09T07:53:58.802Z,7.40
2023-01-09T07:56:25.618Z,7.22
2023-01-09T07:58:52.532Z,6.65
2023-01-09T08:01:19.864Z,7.63
2023-01-09T08:03:46.665Z,8.45
2023-01-09T08:06:13.563Z,6.70
2023-01-09T08:08:40.421Z,7.28
2023-01-09T08:11:07.109Z,5.60
2023-01-09T08:13:33.910Z,5.88
2023-01-09T08:16:00.883Z,8.38
2023-01-09T08:18:27.876Z,6.63
2023-01-09T08:20:54.774Z,9.95
2023-01-09T08:23:21.606Z,5.28
2023-01-09T08:25:48.452Z,6.35
2023-01-09T08:28:15.306Z,5.43
2023-01-09T08:30:42.183Z,7.20
2023-01-09T08:33:09.010Z,5.70
2023-01-09T08:35:35.810Z,7.55
2023-01-09T08:38:02.622Z,6.70
2023-01-09T08:40:29.527Z,5.50
2023-01-09T08:43:15.017Z,7.22
2023-01-09T08:46:00.267Z,4.70
2023-01-09T08:48:27.018Z,7.25
2023-01-09T08:50:54.442Z,6.85
2023-01-09T08:53:21.422Z,7.88
2023-01-09T08:55:48.300Z,6.05
2023-01-09T08:58:15.463Z,6.13
2023-01-09T09:00:42.523Z,5.50
2023-01-09T09:03:11.792Z,5.43
2023-01-09T09:05:38.584Z,6.05
2023-01-09T09:08:06.309Z,7.78
2023-01-09T09:10:33.124Z,4.95
2023-01-09T09:13:01.596Z,8.15
2023-01-09T09:15:29.202Z,7.35
2023-01-09T09:17:58.684Z,7.90
2023-01-09T09:20:27.949Z,6.53
2023-01-09T09:22:55.007Z,6.18
2023-01-09T09:25:22.431Z,6.65
2023-01-09T09:27:49.851Z,7.90
2023-01-09T09:30:19.718Z,8.40
2023-01-09T09:32:47.266Z,8.40
2023-01-09T09:35:14.133Z,5.82
2023-01-09T09:37:41.974Z,5.28
2023-01-09T09:40:20.087Z,6.65
2023-01-09T09:43:36.109Z,6.13
2023-01-09T09:46:14.362Z,6.75
2023-01-09T09:48:56.055Z,7.00
2023-01-09T09:51:34.733Z,9.30
2023-01-09T09:54:35.500Z,8.23
2023-01-09T09:57:05.683Z,7.38
2023-01-09T09:59:36.877Z,8.23
2023-01-09T10:02:31.173Z,5.65
2023-01-09T10:05:07.441Z,8.32
2023-01-09T10:07:42.148Z,5.18
2023-01-09T10:10:38.686Z,8.18
2023-01-09T10:13:27.182Z,9.57
2023-01-09T10:16:45.960Z,6.38
2023-01-09T10:19:50.454Z,8.30
2023-01-09T10:22:54.318Z,7.40
2023-01-09T10:25:42.766Z,8.27
2023-01-09T10:28:39.724Z,7.25
2023-01-09T10:31:27.789Z,7.80
2023-01-09T10:34:21.170Z,7.43
2023-01-09T10:37:13.185Z,5.78
2023-01-09T10:39:57.417Z,9.55
2023-01-09T10:42:33.947Z,8.10
2023-01-09T10:45:16.747Z,8.50
2023-01-09T10:47:44.309Z,8.57
2023-01-09T10:50:27.357Z,7.30
2023-01-09T10:52:56.579Z,9.18
2023-01-09T10:55:36.008Z,8.25
2023-01-09T10:58:10.888Z,7.07
2023-01-09T11:00:38.592Z,10.60
2023-01-09T11:03:06.078Z,8.38
2023-01-09T11:05:34.105Z,8.77
2023-01-09T11:08:19.750Z,8.43
2023-01-09T11:10:52.590Z,8.70
2023-01-09T11:13:23.619Z,9.35
2023-01-09T11:16:19.993Z,11.88
2023-01-09T11:18:58.688Z,9.55
2023-01-09T11:21:28.154Z,8.57
2023-01-09T11:23:56.294Z,9.32
2023-01-09T11:26:35.071Z,9.95
2023-01-09T11:29:12.410Z,10.60
2023-01-09T11:31:43.730Z,8.98
2023-01-09T11:34:25.262Z,12.20
2023-01-09T11:36:54.265Z,9.52
2023-01-09T11:39:32.840Z,9.50
2023-01-09T11:42:09.727Z,10.60
2023-01-09T11:44:36.602Z,9.95
2023-01-09T11:47:23.787Z,9.50
2023-01-09T11:49:51.381Z,8.38
2023-01-09T11:52:21.211Z,9.82
2023-01-09T11:55:04.397Z,9.05
2023-01-09T11:57:32.280Z,6.78
2023-01-09T12:00:13.677Z,7.22
2023-01-09T12:03:00.127Z,6.35
2023-01-09T12:05:29.750Z,6.75
2023-01-09T12:08:05.934Z,7.30
2023-01-09T12:10:57.119Z,6.97
2023-01-09T12:13:50.104Z,5.53
2023-01-09T12:16:40.078Z,4.97
2023-01-09T12:19:34.504Z,3.72
2023-01-09T12:22:37.232Z,4.22
2023-01-09T12:25:29.317Z,5.35
2023-01-09T12:28:09.614Z,3.50
2023-01-09T12:30:45.308Z,2.20
2023-01-09T12:33:38.491Z,2.53
2023-01-09T12:36:20.265Z,4.70
2023-01-09T12:39:00.650Z,3.40
2023-01-09T12:41:42.714Z,5.35
2023-01-09T12:44:36.089Z,2.17
2023-01-09T12:47:16.682Z,3.10
2023-01-09T12:49:57.589Z,3.53
2023-01-09T12:52:32.621Z,4.90
2023-01-09T12:55:17.982Z,4.13
2023-01-09T12:57:48.913Z,4.75
2023-01-09T13:00:19.216Z,3.60
2023-01-09T13:03:12.131Z,5.07
2023-01-09T13:08:18.978Z,4.57
2023-01-09T13:10:47.980Z,3.88
2023-01-09T13:13:36.336Z,3.45
2023-01-09T13:16:09.828Z,3.85
2023-01-09T13:18:59.136Z,4.10
2023-01-09T13:21:26.691Z,3.67
2023-01-09T13:24:06.035Z,4.10
2023-01-09T13:26:41.889Z,5.28
2023-01-09T13:29:17.040Z,6.10
2023-01-09T13:31:56.143Z,3.70
2023-01-09T13:34:26.513Z,5.20
2023-01-09T13:36:55.733Z,5.07
2023-01-09T13:39:29.819Z,7.28
2023-01-09T13:42:18.858Z,6.78
2023-01-09T13:44:48.153Z,5.30
2023-01-09T13:47:28.985Z,5.90
2023-01-09T13:50:11.780Z,5.15
2023-01-09T13:52:43.073Z,5.20
2023-01-09T13:55:14.903Z,5.60
2023-01-09T13:58:05.616Z,6.35
2023-01-09T14:00:39.056Z,6.55
2023-01-09T14:03:31.366Z,5.82
2023-01-09T14:05:58.186Z,6.32
2023-01-09T14:08:28.365Z,5.00
2023-01-09T14:11:03.936Z,4.88
2023-01-09T14:13:34.150Z,3.80
2023-01-09T14:16:15.123Z,4.18
2023-01-09T14:18:55.143Z,5.28
2023-01-09T14:21:22.347Z,5.00
2023-01-09T14:23:58.557Z,3.97
2023-01-09T14:26:45.611Z,3.60
2023-01-09T14:29:31.314Z,5.32
2023-01-09T14:32:22.806Z,6.43
2023-01-09T14:35:08.260Z,6.95
2023-01-09T14:37:38.822Z,5.63
2023-01-09T14:40:08.557Z,3.50
2023-01-09T14:42:39.945Z,5.63
2023-01-09T14:45:15.651Z,6.57
2023-01-09T14:47:55.800Z,4.70
2023-01-09T14:50:51.374Z,4.50
2023-01-09T14:53:30.865Z,6.05
2023-01-09T14:56:06.087Z,5.15
2023-01-09T14:58:34.615Z,4.15
2023-01-09T15:01:27.277Z,5.03
2023-01-09T15:03:59.552Z,5.82
2023-01-09T15:06:29.647Z,4.80
2023-01-09T15:09:02.286Z,6.05
2023-01-09T15:11:30.267Z,6.70
2023-01-09T15:14:00.249Z,5.13
2023-01-09T15:16:28.007Z,6.32
2023-01-09T15:18:58.973Z,7.63
2023-01-09T15:21:30.826Z,5.30
2023-01-09T15:24:27.141Z,5.63
2023-01-09T15:26:57.303Z,5.15
2023-01-09T15:29:24.757Z,6.95
2023-01-09T15:31:56.898Z,6.07
2023-01-09T15:34:25.889Z,6.15
2023-01-09T15:36:53.602Z,6.72
2023-01-09T15:39:27.772Z,6.25
2023-01-09T15:42:14.229Z,5.25
2023-01-09T15:44:43.361Z,3.80
2023-01-09T15:47:23.657Z,4.30
2023-01-09T15:49:51.935Z,4.35
2023-01-09T15:52:19.385Z,5.70
2023-01-09T15:54:47.047Z,4.30
2023-01-09T15:57:26.185Z,5.97
2023-01-09T15:59:57.766Z,5.90
2023-01-09T16:02:44.767Z,5.03
2023-01-09T16:05:16.713Z,8.35
2023-01-09T16:07:51.321Z,5.70
2023-01-09T16:10:36.377Z,7.00
2023-01-09T16:13:03.553Z,8.30
2023-01-09T16:15:34.800Z,7.07
2023-01-09T16:18:28.044Z,7.18
2023-01-09T16:21:22.237Z,6.03
2023-01-09T16:23:57.574Z,6.32
2023-01-09T16:26:27.692Z,6.55
2023-01-09T16:28:55.098Z,6.93
2023-01-09T16:31:26.628Z,5.30
2023-01-09T16:34:13.344Z,6.72
2023-01-09T16:36:40.118Z,8.93
2023-01-09T16:39:12.654Z,5.15
2023-01-09T16:42:02.083Z,6.97
2023-01-09T16:44:28.757Z,5.45
2023-01-09T16:46:55.594Z,4.70
2023-01-09T16:49:24.642Z,6.30
2023-01-09T16:51:52.230Z,6.95
2023-01-09T16:54:19.643Z,4.40
2023-01-09T16:56:53.054Z,6.55
2023-01-09T16:59:27.088Z,6.18
2023-01-09T17:01:54.899Z,6.15
2023-01-09T17:04:23.871Z,5.30
2023-01-09T17:06:51.152Z,6.25
2023-01-09T17:09:20.068Z,5.47
2023-01-09T17:11:47.103Z,4.78
2023-01-09T17:14:14.528Z,5.28
2023-01-09T17:16:45.887Z,5.13
2023-01-09T17:19:19.375Z,4.60
2023-01-09T17:21:46.215Z,4.32
2023-01-09T17:24:31.788Z,3.60
2023-01-09T17:27:18.254Z,4.32
2023-01-09T17:29:45.231Z,3.92
2023-01-09T17:32:19.746Z,4.35
2023-01-09T17:34:46.594Z,4.32
2023-01-09T17:37:23.700Z,6.07
2023-01-09T17:39:50.873Z,4.22
2023-01-09T17:42:17.721Z,6.57
2023-01-09T17:44:44.505Z,4.57
2023-01-09T17:47:17.965Z,3.85
2023-01-09T17:49:44.786Z,3.67
2023-01-09T17:52:11.572Z,2.65
2023-01-09T17:54:39.208Z,4.45
2023-01-09T17:57:07.605Z,3.03
2023-01-09T17:59:35.281Z,5.35
2023-01-09T18:02:02.105Z,4.15
2023-01-09T18:04:29.199Z,3.55
2023-01-09T18:06:56.352Z,5.75
2023-01-09T18:09:23.112Z,4.13
2023-01-09T18:11:49.883Z,3.97
2023-01-09T18:14:17.644Z,5.82
2023-01-09T18:16:45.415Z,3.08
2023-01-09T18:19:12.426Z,3.08
2023-01-09T18:21:39.522Z,5.57
2023-01-09T18:24:06.818Z,3.85
2023-01-09T18:26:33.775Z,5.43
2023-01-09T18:29:01.277Z,2.75
2023-01-09T18:31:29.441Z,2.42
2023-01-09T18:33:57.946Z,2.95
2023-01-09T18:36:30.525Z,2.55
2023-01-09T18:38:59.210Z,3.80
2023-01-09T18:41:26.436Z,4.28
2023-01-09T18:43:58.851Z,4.00
2023-01-09T18:46:30.623Z,5.55
2023-01-09T18:49:00.330Z,3.63
2023-01-09T18:51:28.359Z,3.03
2023-01-09T18:53:55.933Z,3.20
2023-01-09T18:56:23.372Z,4.07
2023-01-09T18:58:53.599Z,2.97
2023-01-09T19:01:20.429Z,2.47
2023-01-09T19:03:47.369Z,2.38
2023-01-09T19:06:14.120Z,4.85
2023-01-09T19:08:40.940Z,2.55
2023-01-09T19:11:08.009Z,3.08
2023-01-09T19:13:37.181Z,4.38
2023-01-09T19:16:05.915Z,2.45
2023-01-09T19:18:38.783Z,2.75
2023-01-09T19:21:17.433Z,4.72
2023-01-09T19:23:44.749Z,6.28
2023-01-09T19:26:26.541Z,3.17
2023-01-09T19:28:55.439Z,3.25
2023-01-09T19:31:24.610Z,2.70
2023-01-09T19:33:52.792Z,3.75
2023-01-09T19:36:20.150Z,4.60
2023-01-09T19:38:46.894Z,4.47
2023-01-09T19:41:19.555Z,2.63
2023-01-09T19:43:47.482Z,3.67
2023-01-09T19:46:17.077Z,2.95
2023-01-09T19:48:44.030Z,2.63
2023-01-09T19:51:12.188Z,3.75
2023-01-09T19:53:39.592Z,4.07
2023-01-09T19:56:12.365Z,6.15
2023-01-09T19:58:39.955Z,4.28
2023-01-09T20:01:12.531Z,3.90
2023-01-09T20:03:44.380Z,2.83
2023-01-09T20:06:14.458Z,4.70
2023-01-09T20:08:42.029Z,3.95
2023-01-09T20:11:09.167Z,3.25
2023-01-09T20:13:36.687Z,5.50
2023-01-09T20:16:04.326Z,5.03
2023-01-09T20:18:32.299Z,4.10
2023-01-09T20:20:59.560Z,3.97
2023-01-09T20:23:28.078Z,5.70
2023-01-09T20:25:55.799Z,2.80
2023-01-09T20:28:23.266Z,3.15
2023-01-09T20:30:51.843Z,4.82
2023-01-09T20:33:19.708Z,4.13
2023-01-09T20:35:46.648Z,5.13
2023-01-09T20:38:13.985Z,5.45
2023-01-09T20:40:43.985Z,4.82
2023-01-09T20:43:12.659Z,4.30
2023-01-09T20:45:40.691Z,5.30
2023-01-09T20:48:08.320Z,5.43
2023-01-09T20:50:35.283Z,6.63
2023-01-09T20:53:02.711Z,5.15
2023-01-09T20:55:29.498Z,5.88
2023-01-09T20:57:56.198Z,7.65
2023-01-09T21:00:27.371Z,6.13
2023-01-09T21:02:54.677Z,4.72
2023-01-09T21:05:21.514Z,8.10
2023-01-09T21:07:48.406Z,6.05
2023-01-09T21:10:15.227Z,4.43
2023-01-09T21:12:42.076Z,5.13
2023-01-09T21:15:11.598Z,5.88
2023-01-09T21:17:40.195Z,3.72
2023-01-09T21:20:10.474Z,4.13
2023-01-09T21:22:38.160Z,6.60
2023-01-09T21:25:09.398Z,5.72
2023-01-09T21:27:41.086Z,5.20
2023-01-09T21:30:09.293Z,5.13
2023-01-09T21:32:36.222Z,6.55
2023-01-09T21:35:06.878Z,8.07
2023-01-09T21:37:36.247Z,5.22
2023-01-09T21:40:03.794Z,4.20
2023-01-09T21:42:49.110Z,8.23
2023-01-09T21:45:36.589Z,5.57
2023-01-09T21:48:05.221Z,6.70
2023-01-09T21:50:33.399Z,7.05
2023-01-09T21:53:00.355Z,5.35
2023-01-09T21:55:27.257Z,7.10
2023-01-09T21:57:57.109Z,4.97
2023-01-09T22:00:28.018Z,7.07
2023-01-09T22:03:38.817Z,7.40
2023-01-09T22:06:06.323Z,6.03
2023-01-09T22:08:33.100Z,7.05
2023-01-09T22:11:01.384Z,6.43
2023-01-09T22:13:28.935Z,5.88
2023-01-09T22:15:59.153Z,5.90
2023-01-09T22:18:25.957Z,8.35
2023-01-09T22:20:52.660Z,6.18
2023-01-09T22:23:19.404Z,6.35
2023-01-09T22:25:46.166Z,8.05
2023-01-09T22:28:13.008Z,7.22
2023-01-09T22:30:41.459Z,6.15
2023-01-09T22:33:10.836Z,6.28
2023-01-09T22:35:39.404Z,4.80
2023-01-09T22:38:06.770Z,6.57
2023-01-09T22:40:33.627Z,5.05
2023-01-09T22:43:00.432Z,7.05
2023-01-09T22:45:27.238Z,7.80
2023-01-09T22:47:54.013Z,6.80
2023-01-09T22:50:20.789Z,6.10
2023-01-09T22:52:48.560Z,9.75
2023-01-09T22:55:16.177Z,11.77
2023-01-09T22:57:43.016Z,6.07
2023-01-09T23:00:10.823Z,7.22
2023-01-09T23:02:57.590Z,6.72
2023-01-09T23:05:24.417Z,7.65
2023-01-09T23:07:51.223Z,6.55
2023-01-09T23:10:18.096Z,9.18
2023-01-09T23:12:48.459Z,8.38
2023-01-09T23:15:15.228Z,7.93
2023-01-09T23:17:42.011Z,6.18
2023-01-09T23:20:10.151Z,8.27
2023-01-09T23:22:36.873Z,12.75
2023-01-09T23:25:03.835Z,5.65
2023-01-09T23:27:30.686Z,5.95
2023-01-09T23:29:57.882Z,6.50
2023-01-09T23:32:24.657Z,7.15
2023-01-09T23:34:53.070Z,9.98
2023-01-09T23:37:19.819Z,5.97
2023-01-09T23:39:46.619Z,8.00
2023-01-09T23:42:51.937Z,8.98
2023-01-09T23:45:18.756Z,7.35
2023-01-09T23:47:45.469Z,8.82
2023-01-09T23:50:12.439Z,7.40
2023-01-09T23:52:39.232Z,10.25
2023-01-09T23:55:06.484Z,7.95
2023-01-09T23:57:33.650Z,6.57
